Time;durP1;ratioP1;P1;durP2;ratioP2;P2;SDS_P1;SDS_P2;PMS_P1;PMS_P2;Temp;Humidity;BMP_temperature;BMP_pressure;BME280_temperature;BME280_humidity;BME280_pressure;Samples;Min_cycle;Max_cycle;Signal;HPM_P1;HPM_P2
2022/07/08 00:02:12;;;;;;;6.43;4.88;;;14.90;99.90;;;;;;5011211;28;20438;-82
2022/07/08 00:04:39;;;;;;;4.75;4.38;;;14.90;99.90;;;;;;5012411;28;20120;-81
2022/07/08 00:07:04;;;;;;;11.57;5.00;;;14.90;99.90;;;;;;5013078;28;20025;-81
2022/07/08 00:09:30;;;;;;;10.27;5.13;;;14.90;99.90;;;;;;5014229;28;20022;-83
2022/07/08 00:11:56;;;;;;;5.47;4.70;;;14.90;99.90;;;;;;5013106;28;20022;-84
2022/07/08 00:14:23;;;;;;;6.00;4.90;;;14.80;99.90;;;;;;5012859;28;20033;-84
2022/07/08 00:16:49;;;;;;;7.53;5.43;;;14.80;99.90;;;;;;5013088;28;20393;-83
2022/07/08 00:19:16;;;;;;;6.68;6.07;;;14.70;99.90;;;;;;5012932;28;20026;-81
2022/07/08 00:21:44;;;;;;;7.03;5.53;;;14.70;99.90;;;;;;5029236;28;20026;-85
2022/07/08 00:24:13;;;;;;;6.00;5.50;;;14.70;99.90;;;;;;5014093;28;20030;-83
2022/07/08 00:26:40;;;;;;;6.30;5.70;;;14.70;99.90;;;;;;5014182;28;20028;-83
2022/07/08 00:29:07;;;;;;;7.57;5.28;;;14.70;99.90;;;;;;5014002;28;20459;-83
2022/07/08 00:31:33;;;;;;;7.60;6.65;;;14.70;99.90;;;;;;5014123;28;20025;-81
2022/07/08 00:33:58;;;;;;;7.13;5.55;;;14.70;99.90;;;;;;5014130;28;20504;-81
2022/07/08 00:36:25;;;;;;;8.23;6.90;;;14.70;99.90;;;;;;5012431;28;20029;-84
2022/07/08 00:38:50;;;;;;;8.30;7.15;;;14.80;99.90;;;;;;5012663;28;20230;-82
2022/07/08 00:41:16;;;;;;;8.20;6.60;;;14.80;99.90;;;;;;5013806;28;20028;-82
2022/07/08 00:43:45;;;;;;;6.70;6.00;;;14.70;99.90;;;;;;5013405;28;20030;-82
2022/07/08 00:46:12;;;;;;;12.13;6.82;;;14.80;99.90;;;;;;5012441;28;20066;-81
2022/07/08 00:48:38;;;;;;;6.97;6.35;;;14.80;99.90;;;;;;5012125;28;20644;-82
2022/07/08 00:51:09;;;;;;;7.43;6.72;;;14.70;99.90;;;;;;5012169;28;20394;-81
2022/07/08 00:53:39;;;;;;;9.80;8.52;;;14.80;99.90;;;;;;5013444;28;20022;-83
2022/07/08 00:56:05;;;;;;;9.70;7.32;;;14.80;99.90;;;;;;5013511;28;20061;-83
2022/07/08 00:58:34;;;;;;;8.77;7.82;;;14.80;99.90;;;;;;5013293;28;20045;-81
2022/07/08 01:01:00;;;;;;;10.02;8.25;;;14.80;99.90;;;;;;5013358;28;20100;-82
2022/07/08 01:03:27;;;;;;;8.18;7.47;;;14.80;99.90;;;;;;5012101;28;20468;-82
2022/07/08 01:05:52;;;;;;;10.05;7.60;;;14.80;99.90;;;;;;5012179;28;20036;-83
2022/07/08 01:08:18;;;;;;;8.32;7.53;;;14.80;99.90;;;;;;5013284;28;20021;-85
2022/07/08 01:10:44;;;;;;;16.02;7.40;;;14.80;99.90;;;;;;5013165;28;20018;-84
2022/07/08 01:13:10;;;;;;;11.57;6.80;;;14.80;99.90;;;;;;5013043;28;20432;-83
2022/07/08 01:15:36;;;;;;;8.23;7.53;;;14.80;99.90;;;;;;5027098;28;20026;-80
2022/07/08 01:18:01;;;;;;;14.63;7.65;;;14.80;99.90;;;;;;5013135;28;20064;-81
2022/07/08 01:20:31;;;;;;;9.55;7.13;;;14.80;99.90;;;;;;5013153;28;20560;-82
2022/07/08 01:22:57;;;;;;;6.90;6.25;;;14.80;99.90;;;;;;5011971;28;20030;-84
2022/07/08 01:25:23;;;;;;;8.60;7.00;;;14.80;99.90;;;;;;5028220;28;20032;-82
2022/07/08 01:27:49;;;;;;;8.45;6.00;;;14.80;99.90;;;;;;5011654;28;20034;-80
2022/07/08 01:30:15;;;;;;;8.52;6.13;;;14.80;99.90;;;;;;5012461;28;20540;-84
2022/07/08 01:32:41;;;;;;;6.78;6.18;;;14.80;99.90;;;;;;5012852;28;20129;-81
2022/07/08 01:35:08;;;;;;;7.78;5.43;;;14.90;99.90;;;;;;5012688;28;20030;-81
2022/07/08 01:37:33;;;;;;;7.00;6.30;;;14.80;99.90;;;;;;5012677;28;20030;-83
2022/07/08 01:39:59;;;;;;;11.10;6.13;;;14.80;99.90;;;;;;5012584;28;20026;-80
2022/07/08 01:42:25;;;;;;;5.65;5.15;;;14.80;99.90;;;;;;5012705;28;20018;-81
2022/07/08 01:44:50;;;;;;;6.70;4.82;;;14.80;99.90;;;;;;5011906;28;20064;-83
2022/07/08 01:47:16;;;;;;;5.72;5.00;;;14.80;99.90;;;;;;5012570;28;20038;-82
2022/07/08 01:49:42;;;;;;;7.50;4.82;;;14.80;99.90;;;;;;5012278;28;20029;-83
2022/07/08 01:52:08;;;;;;;6.65;4.95;;;14.80;99.90;;;;;;5012399;28;20060;-79
2022/07/08 01:54:34;;;;;;;7.55;4.50;;;14.80;99.90;;;;;;5010994;28;20088;-84
2022/07/08 01:57:14;;;;;;;5.72;4.38;;;14.90;99.90;;;;;;5012475;28;20504;-83
2022/07/08 01:59:45;;;;;;;4.50;4.15;;;14.90;99.90;;;;;;5012153;28;20119;-81
2022/07/08 02:02:13;;;;;;;4.40;4.00;;;14.90;99.90;;;;;;5012274;28;20080;-83
2022/07/08 02:04:39;;;;;;;5.78;4.35;;;14.90;99.90;;;;;;5012064;28;20112;-83
2022/07/08 02:07:05;;;;;;;6.32;4.28;;;14.80;99.90;;;;;;5012171;28;20021;-82
2022/07/08 02:09:31;;;;;;;3.63;3.33;;;14.80;99.90;;;;;;5010841;28;20113;-80
2022/07/08 02:14:41;;;;;;;6.72;3.53;;;14.90;99.90;;;;;;4992542;28;20108;-82
2022/07/08 02:17:08;;;;;;;3.90;3.50;;;14.90;99.90;;;;;;4992511;28;20035;-81
2022/07/08 02:19:34;;;;;;;4.90;4.40;;;14.80;99.90;;;;;;4992309;28;20026;-83
2022/07/08 02:22:00;;;;;;;5.30;3.65;;;14.80;99.90;;;;;;4992021;28;20390;-83
2022/07/08 02:24:26;;;;;;;3.65;3.35;;;14.80;99.90;;;;;;4992311;28;20029;-84
2022/07/08 02:26:52;;;;;;;7.22;3.08;;;14.80;99.90;;;;;;4992539;28;20250;-82
2022/07/08 02:29:18;;;;;;;3.45;3.15;;;14.80;99.90;;;;;;5011553;28;20022;-84
2022/07/08 02:31:43;;;;;;;9.02;4.40;;;14.80;99.90;;;;;;5010353;28;20109;-82
2022/07/08 02:34:09;;;;;;;10.38;3.13;;;14.80;99.90;;;;;;5010673;28;20523;-83
2022/07/08 02:36:36;;;;;;;9.75;2.78;;;14.70;99.90;;;;;;5010310;28;20022;-83
2022/07/08 02:39:02;;;;;;;4.05;3.40;;;14.80;99.90;;;;;;5026865;28;20061;-82
2022/07/08 02:41:29;;;;;;;6.28;3.13;;;14.80;99.90;;;;;;5010442;28;20033;-81
2022/07/08 02:43:58;;;;;;;6.10;3.42;;;14.80;99.90;;;;;;5011258;28;20030;-84
2022/07/08 02:46:23;;;;;;;2.78;2.55;;;14.70;99.90;;;;;;5011538;28;20105;-84
2022/07/08 02:48:49;;;;;;;7.47;3.25;;;14.70;99.90;;;;;;5009986;28;20133;-85
2022/07/08 02:51:15;;;;;;;5.38;2.97;;;14.70;99.90;;;;;;5011579;28;20293;-83
2022/07/08 02:53:40;;;;;;;9.63;3.15;;;14.70;99.90;;;;;;5011434;28;20038;-84
2022/07/08 02:56:06;;;;;;;8.05;2.90;;;14.60;99.90;;;;;;5010042;28;20130;-85
2022/07/08 02:58:32;;;;;;;2.30;2.10;;;14.70;99.90;;;;;;5011083;28;20038;-83
2022/07/08 03:00:58;;;;;;;3.45;2.92;;;14.70;99.90;;;;;;5011399;28;20030;-81
2022/07/08 03:03:24;;;;;;;3.72;1.98;;;14.70;99.90;;;;;;5011285;28;20092;-85
2022/07/08 03:05:49;;;;;;;2.10;1.75;;;14.60;99.90;;;;;;5010119;28;20022;-80
2022/07/08 03:08:15;;;;;;;2.97;2.22;;;14.50;99.90;;;;;;5009941;28;20386;-81
2022/07/08 03:10:41;;;;;;;3.25;1.77;;;14.50;99.90;;;;;;5011081;28;20025;-82
2022/07/08 03:13:06;;;;;;;7.57;1.50;;;14.40;99.90;;;;;;5011162;28;20503;-83
2022/07/08 03:15:32;;;;;;;3.10;1.23;;;14.30;99.90;;;;;;5011626;28;20113;-82
2022/07/08 03:17:58;;;;;;;4.43;1.15;;;14.20;99.90;;;;;;5011158;28;20026;-83
2022/07/08 03:20:24;;;;;;;2.42;1.27;;;14.00;99.90;;;;;;5011279;28;20097;-82
2022/07/08 03:22:50;;;;;;;1.60;1.50;;;13.90;99.90;;;;;;5009703;28;20358;-81
2022/07/08 03:25:16;;;;;;;2.92;1.70;;;13.90;99.90;;;;;;5011026;28;20105;-81
2022/07/08 03:27:42;;;;;;;2.80;1.50;;;13.80;99.90;;;;;;5009427;28;20441;-84
2022/07/08 03:30:08;;;;;;;9.77;2.50;;;13.70;99.90;;;;;;5009714;28;20022;-85
2022/07/08 03:32:33;;;;;;;4.13;1.70;;;13.40;99.90;;;;;;5009583;28;20029;-82
2022/07/08 03:34:59;;;;;;;3.42;1.92;;;13.40;99.90;;;;;;5009987;28;20030;-83
2022/07/08 03:37:25;;;;;;;5.20;2.95;;;13.30;99.90;;;;;;5009555;28;20026;-81
2022/07/08 03:39:53;;;;;;;4.25;1.90;;;13.40;99.90;;;;;;5011952;28;20029;-82
2022/07/08 03:42:19;;;;;;;6.68;2.58;;;13.40;99.90;;;;;;5014772;28;20026;-82
2022/07/08 03:44:45;;;;;;;5.13;2.00;;;13.30;99.90;;;;;;5014733;28;20385;-82
2022/07/08 03:47:11;;;;;;;8.65;2.15;;;13.30;99.90;;;;;;5014689;28;20532;-83
2022/07/08 03:49:37;;;;;;;4.40;2.75;;;13.20;99.90;;;;;;5014690;28;20236;-81
2022/07/08 03:52:03;;;;;;;5.18;2.35;;;13.30;99.90;;;;;;5014775;28;20049;-80
2022/07/08 03:54:29;;;;;;;5.15;2.20;;;13.20;99.90;;;;;;5014729;28;20396;-83
2022/07/08 03:56:55;;;;;;;9.68;2.30;;;13.30;99.90;;;;;;5013496;28;20108;-80
2022/07/08 03:59:20;;;;;;;3.90;2.10;;;13.30;99.90;;;;;;5013245;28;20342;-85
2022/07/08 04:01:46;;;;;;;3.38;1.88;;;13.20;99.90;;;;;;5012884;28;20030;-84
2022/07/08 04:04:12;;;;;;;2.55;2.22;;;13.20;99.90;;;;;;5014426;28;20084;-83
2022/07/08 04:06:37;;;;;;;6.22;2.03;;;13.20;99.90;;;;;;5014362;28;20378;-83
2022/07/08 04:09:04;;;;;;;5.18;2.40;;;13.20;99.90;;;;;;5014426;28;20033;-82
2022/07/08 04:11:30;;;;;;;5.65;2.00;;;13.20;99.90;;;;;;5014087;28;20494;-85
2022/07/08 04:13:56;;;;;;;3.72;1.95;;;13.20;99.90;;;;;;5014475;28;20026;-84
2022/07/08 04:16:22;;;;;;;7.40;2.13;;;13.10;99.90;;;;;;5012442;28;20382;-80
2022/07/08 04:18:48;;;;;;;9.30;2.40;;;13.00;99.90;;;;;;5014367;28;20538;-82
2022/07/08 04:21:14;;;;;;;4.70;2.22;;;12.90;99.90;;;;;;5029113;28;20164;-83
2022/07/08 04:23:40;;;;;;;10.98;2.50;;;13.00;99.90;;;;;;5013875;28;20115;-84
2022/07/08 04:26:07;;;;;;;5.63;2.30;;;12.90;99.90;;;;;;5014269;28;20485;-80
2022/07/08 04:28:33;;;;;;;11.10;2.42;;;13.00;99.90;;;;;;5013655;28;20408;-82
2022/07/08 04:30:59;;;;;;;6.40;2.33;;;13.10;99.90;;;;;;5012756;28;20112;-82
2022/07/08 04:33:25;;;;;;;11.80;2.60;;;13.10;99.90;;;;;;5017218;28;20045;-84
2022/07/08 04:35:51;;;;;;;9.10;2.67;;;13.00;99.90;;;;;;5027933;28;20030;-83
2022/07/08 04:38:16;;;;;;;6.63;2.35;;;13.00;99.90;;;;;;5031435;28;20077;-80
2022/07/08 04:40:43;;;;;;;5.70;2.63;;;13.10;99.90;;;;;;5049919;28;20453;-80
2022/07/08 04:43:09;;;;;;;6.63;2.20;;;13.10;99.90;;;;;;5034481;28;20038;-84
2022/07/08 04:45:35;;;;;;;4.65;2.33;;;13.20;99.90;;;;;;5013668;28;20476;-81
2022/07/08 04:48:00;;;;;;;10.77;2.47;;;13.30;99.90;;;;;;5013900;28;20053;-81
2022/07/08 04:50:26;;;;;;;7.32;2.13;;;13.30;99.90;;;;;;5013510;28;20089;-82
2022/07/08 04:52:52;;;;;;;5.78;2.80;;;13.40;99.90;;;;;;5014331;28;20026;-84
2022/07/08 04:55:27;;;;;;;7.95;2.53;;;13.40;99.90;;;;;;5016102;28;20018;-83
2022/07/08 04:57:58;;;;;;;9.57;2.47;;;13.40;99.90;;;;;;5014838;28;20026;-82
2022/07/08 05:00:24;;;;;;;4.20;2.00;;;13.40;99.90;;;;;;5013815;28;20097;-80
2022/07/08 05:02:50;;;;;;;12.20;2.47;;;13.40;99.90;;;;;;5013332;28;20022;-81
2022/07/08 05:05:17;;;;;;;17.70;3.25;;;13.40;99.90;;;;;;5013194;28;20033;-84
2022/07/08 05:07:44;;;;;;;5.90;2.47;;;13.30;99.90;;;;;;5013131;28;20066;-81
2022/07/08 05:10:11;;;;;;;5.82;2.30;;;13.30;99.90;;;;;;5011921;28;20084;-84
2022/07/08 05:12:38;;;;;;;10.40;2.70;;;13.20;99.90;;;;;;5012892;28;20497;-82
2022/07/08 05:15:07;;;;;;;7.82;3.20;;;13.30;99.90;;;;;;5012995;28;20428;-83
2022/07/08 05:17:35;;;;;;;4.70;2.70;;;13.40;99.90;;;;;;5012985;28;20036;-82
2022/07/08 05:20:01;;;;;;;7.18;2.67;;;13.40;99.90;;;;;;5013258;28;20109;-85
2022/07/08 05:22:28;;;;;;;4.28;2.50;;;13.50;99.90;;;;;;5012993;28;20156;-81
2022/07/08 05:24:54;;;;;;;6.90;2.78;;;13.60;99.90;;;;;;5011602;28;20477;-81
2022/07/08 05:27:21;;;;;;;5.80;2.22;;;13.70;99.90;;;;;;5012502;28;20030;-82
2022/07/08 05:29:48;;;;;;;7.85;2.88;;;13.70;99.90;;;;;;5011555;28;20106;-81
2022/07/08 05:32:15;;;;;;;14.18;3.20;;;13.70;99.90;;;;;;5011317;28;20071;-80
2022/07/08 05:34:41;;;;;;;9.45;2.72;;;13.70;99.90;;;;;;5012643;28;20032;-82
2022/07/08 05:37:08;;;;;;;10.95;2.63;;;13.80;99.90;;;;;;5011146;28;20033;-82
2022/07/08 05:39:35;;;;;;;7.40;2.58;;;13.80;99.90;;;;;;5011201;28;20121;-84
2022/07/08 05:42:00;;;;;;;9.02;2.55;;;14.00;99.90;;;;;;5012587;28;20025;-84
2022/07/08 05:44:26;;;;;;;7.40;2.88;;;14.00;99.90;;;;;;5012497;28;20105;-82
2022/07/08 05:46:52;;;;;;;6.63;2.83;;;14.00;99.90;;;;;;5012488;28;20014;-80
2022/07/08 05:49:18;;;;;;;3.70;2.35;;;14.00;99.90;;;;;;5012585;28;20018;-80
2022/07/08 05:51:43;;;;;;;7.65;2.55;;;13.90;99.90;;;;;;5012091;28;20054;-79
2022/07/08 05:54:09;;;;;;;9.68;2.97;;;13.80;99.90;;;;;;5011046;28;20050;-84
2022/07/08 05:56:35;;;;;;;9.35;2.50;;;13.70;99.90;;;;;;5010830;28;20314;-83
2022/07/08 05:59:01;;;;;;;13.32;3.90;;;13.80;99.90;;;;;;5010906;28;20053;-83
2022/07/08 06:01:28;;;;;;;7.88;2.47;;;14.00;99.90;;;;;;5010254;28;20058;-83
2022/07/08 06:03:55;;;;;;;5.18;2.33;;;14.00;99.90;;;;;;5012389;28;20360;-82
2022/07/08 06:06:22;;;;;;;5.85;2.30;;;14.00;99.90;;;;;;5010146;28;20030;-82
2022/07/08 06:08:48;;;;;;;5.53;2.60;;;14.10;99.90;;;;;;5012043;28;20014;-82
2022/07/08 06:11:15;;;;;;;5.38;2.28;;;14.30;99.90;;;;;;5011959;28;20497;-84
2022/07/08 06:13:41;;;;;;;6.15;2.13;;;14.40;99.90;;;;;;5012566;28;20637;-84
2022/07/08 06:16:07;;;;;;;5.97;2.22;;;14.50;99.90;;;;;;5010677;28;20025;-83
2022/07/08 06:18:35;;;;;;;7.53;2.47;;;14.40;99.90;;;;;;5011893;28;20025;-83
2022/07/08 06:21:01;;;;;;;9.05;2.63;;;14.50;99.90;;;;;;5011727;28;20084;-83
2022/07/08 06:23:27;;;;;;;8.18;2.30;;;14.60;99.90;;;;;;5011690;28;20437;-83
2022/07/08 06:25:53;;;;;;;7.32;2.25;;;14.40;99.90;;;;;;5011712;28;20030;-80
2022/07/08 06:28:19;;;;;;;8.20;2.33;;;14.40;99.90;;;;;;5010516;28;20075;-82
2022/07/08 06:30:46;;;;;;;10.98;2.97;;;14.50;99.90;;;;;;5010299;28;20022;-84
2022/07/08 06:33:12;;;;;;;6.07;2.58;;;14.30;99.90;;;;;;5010371;28;20026;-82
2022/07/08 06:35:38;;;;;;;10.40;2.83;;;14.40;99.90;;;;;;5010263;28;20501;-82
2022/07/08 06:38:04;;;;;;;12.38;2.47;;;14.40;99.90;;;;;;5010440;28;20141;-81
2022/07/08 06:40:32;;;;;;;5.82;2.17;;;14.40;99.90;;;;;;4992862;28;20030;-83
2022/07/08 06:42:59;;;;;;;9.65;2.63;;;14.60;99.90;;;;;;5002823;28;20041;-82
2022/07/08 06:45:27;;;;;;;8.02;2.70;;;14.70;99.90;;;;;;5011412;28;20101;-81
2022/07/08 06:47:54;;;;;;;12.25;2.53;;;14.70;99.90;;;;;;5011175;28;20038;-83
2022/07/08 06:50:21;;;;;;;6.10;2.03;;;14.50;99.90;;;;;;5011465;28;20083;-81
2022/07/08 06:52:49;;;;;;;5.85;2.80;;;14.40;99.90;;;;;;5026885;28;20021;-81
2022/07/08 06:55:15;;;;;;;12.88;2.95;;;14.40;99.90;;;;;;5010981;28;20030;-83
2022/07/08 06:57:41;;;;;;;13.30;3.55;;;14.50;99.90;;;;;;5011003;28;20409;-81
2022/07/08 07:00:09;;;;;;;6.78;2.40;;;14.70;99.90;;;;;;5011351;28;20027;-82
2022/07/08 07:02:36;;;;;;;12.23;2.53;;;14.70;99.90;;;;;;5009539;28;20473;-82
2022/07/08 07:05:02;;;;;;;3.25;2.40;;;14.90;99.90;;;;;;5011375;28;20030;-81
2022/07/08 07:07:29;;;;;;;4.80;2.25;;;15.00;99.90;;;;;;5010056;28;20115;-83
2022/07/08 07:09:57;;;;;;;6.75;2.28;;;15.10;99.90;;;;;;5009726;28;20045;-81
2022/07/08 07:12:23;;;;;;;8.10;2.42;;;15.00;99.90;;;;;;5011081;28;20018;-81
2022/07/08 07:14:49;;;;;;;11.30;2.10;;;15.20;99.90;;;;;;5010367;28;20030;-85
2022/07/08 07:17:20;;;;;;;6.50;2.40;;;15.30;99.90;;;;;;5011203;28;20022;-82
2022/07/08 07:19:47;;;;;;;7.50;2.22;;;15.50;99.90;;;;;;5010933;28;20030;-80
2022/07/08 07:22:14;;;;;;;5.82;2.05;;;15.80;99.90;;;;;;5010970;28;20026;-83
2022/07/08 07:24:40;;;;;;;6.65;2.33;;;16.00;99.90;;;;;;5010952;28;20381;-83
2022/07/08 07:27:06;;;;;;;6.63;2.13;;;15.60;99.90;;;;;;5009610;28;20030;-82
2022/07/08 07:29:32;;;;;;;7.40;2.33;;;15.50;99.90;;;;;;5011091;28;20109;-84
2022/07/08 07:31:58;;;;;;;8.40;2.33;;;15.50;99.90;;;;;;5009731;28;20117;-82
2022/07/08 07:34:25;;;;;;;5.07;2.08;;;15.60;99.90;;;;;;5010353;28;20032;-81
2022/07/08 07:36:51;;;;;;;5.97;2.75;;;15.90;99.90;;;;;;5010767;28;20053;-82
2022/07/08 07:39:17;;;;;;;6.20;2.28;;;15.70;99.90;;;;;;5010791;28;20034;-81
2022/07/08 07:41:44;;;;;;;9.23;2.42;;;16.10;99.90;;;;;;5010761;28;20026;-83
2022/07/08 07:44:10;;;;;;;14.32;2.88;;;16.40;99.90;;;;;;5010842;28;20028;-84
2022/07/08 07:46:36;;;;;;;13.73;2.63;;;16.20;99.90;;;;;;5009155;28;20026;-81
2022/07/08 07:49:02;;;;;;;7.07;2.50;;;16.00;99.90;;;;;;5010737;28;20489;-80
2022/07/08 07:51:29;;;;;;;10.98;2.92;;;16.30;99.90;;;;;;5010590;28;20022;-83
2022/07/08 07:53:55;;;;;;;12.15;2.65;;;15.90;99.90;;;;;;5010665;28;20037;-80
2022/07/08 07:56:23;;;;;;;9.25;3.30;;;15.80;99.90;;;;;;5009040;28;20040;-81
2022/07/08 07:58:49;;;;;;;10.38;2.60;;;15.60;99.90;;;;;;5009360;28;20030;-83
2022/07/08 08:01:15;;;;;;;10.95;2.67;;;15.50;99.90;;;;;;5010499;28;20032;-83
2022/07/08 08:03:42;;;;;;;7.40;2.78;;;15.60;99.90;;;;;;5010521;28;20447;-82
2022/07/08 08:06:08;;;;;;;7.60;2.80;;;15.20;99.90;;;;;;5009236;28;20077;-81
2022/07/08 08:08:35;;;;;;;7.65;2.90;;;15.30;99.90;;;;;;5025483;28;20025;-83
2022/07/08 08:11:03;;;;;;;13.43;2.75;;;15.30;99.90;;;;;;5010350;28;20022;-82
2022/07/08 08:13:30;;;;;;;7.00;3.03;;;15.30;99.90;;;;;;5010557;28;20034;-84
2022/07/08 08:15:56;;;;;;;12.50;2.67;;;15.50;99.90;;;;;;5010285;28;20037;-81
2022/07/08 08:18:23;;;;;;;9.68;2.35;;;15.60;99.90;;;;;;5009266;28;20018;-81
2022/07/08 08:20:50;;;;;;;5.22;2.20;;;15.40;99.90;;;;;;5010280;28;20038;-85
2022/07/08 08:23:16;;;;;;;6.88;3.53;;;15.60;99.90;;;;;;5010295;28;20105;-84
2022/07/08 08:25:42;;;;;;;12.68;4.10;;;15.60;99.90;;;;;;5012259;28;20104;-83
2022/07/08 08:28:08;;;;;;;10.73;2.30;;;15.60;99.90;;;;;;5012741;28;20400;-84
2022/07/08 08:30:34;;;;;;;12.05;3.55;;;15.60;99.90;;;;;;5013770;28;20018;-84
2022/07/08 08:33:00;;;;;;;6.28;2.78;;;15.60;99.90;;;;;;5012538;28;20029;-82
2022/07/08 08:35:26;;;;;;;11.50;2.83;;;15.40;99.90;;;;;;5013228;28;20026;-81
2022/07/08 08:37:52;;;;;;;8.57;2.83;;;15.60;99.90;;;;;;5012470;28;20037;-82
2022/07/08 08:40:22;;;;;;;18.17;4.50;;;15.60;99.90;;;;;;5013863;28;20515;-83
2022/07/08 08:42:48;;;;;;;12.15;3.60;;;15.50;99.90;;;;;;5012396;28;20104;-81
2022/07/08 08:45:14;;;;;;;14.10;2.80;;;15.70;99.90;;;;;;5011972;28;20041;-81
2022/07/08 08:47:40;;;;;;;10.27;2.55;;;15.70;99.90;;;;;;5012264;28;20046;-83
2022/07/08 08:52:55;;;;;;;8.70;3.08;;;15.60;99.90;;;;;;5013638;28;20037;-81
2022/07/08 08:55:29;;;;;;;9.55;2.70;;;15.60;99.90;;;;;;5013534;28;20022;-80
2022/07/08 08:58:04;;;;;;;22.45;3.53;;;15.60;99.90;;;;;;5013537;28;20354;-83
2022/07/08 09:00:33;;;;;;;8.25;2.45;;;15.40;99.90;;;;;;5013223;28;20017;-83
2022/07/08 09:03:00;;;;;;;13.65;3.03;;;15.50;99.90;;;;;;5012380;28;20120;-83
2022/07/08 09:05:27;;;;;;;13.48;2.67;;;15.20;99.90;;;;;;5011972;28;20493;-82
2022/07/08 09:07:54;;;;;;;8.07;2.25;;;15.20;99.90;;;;;;5013221;28;20022;-83
2022/07/08 09:10:21;;;;;;;11.07;2.88;;;15.30;99.90;;;;;;5012075;28;20022;-82
2022/07/08 09:13:07;;;;;;;10.13;2.47;;;15.40;99.90;;;;;;5013201;28;20018;-82
2022/07/08 09:15:34;;;;;;;15.63;4.28;;;15.50;99.90;;;;;;5013108;28;20026;-83
2022/07/08 09:18:01;;;;;;;4.93;2.05;;;15.80;99.90;;;;;;5013029;28;20504;-83
2022/07/08 09:20:44;;;;;;;4.45;2.33;;;16.00;99.90;;;;;;5013401;28;20104;-80
2022/07/08 09:23:33;;;;;;;4.95;1.77;;;16.00;99.90;;;;;;5011776;28;20037;-84
2022/07/08 09:26:10;;;;;;;4.95;2.25;;;16.20;99.90;;;;;;5012791;28;20022;-84
2022/07/08 09:28:41;;;;;;;12.43;2.53;;;16.20;99.90;;;;;;5012868;28;20033;-80
2022/07/08 09:31:12;;;;;;;7.88;2.25;;;16.00;99.90;;;;;;5011438;28;20033;-83
2022/07/08 09:33:39;;;;;;;12.98;2.40;;;16.10;99.90;;;;;;5012510;28;20489;-84
2022/07/08 09:36:06;;;;;;;13.77;2.33;;;16.40;99.90;;;;;;5012183;28;20485;-82
2022/07/08 09:38:35;;;;;;;12.10;2.63;;;16.50;99.90;;;;;;5012682;28;20033;-83
2022/07/08 09:41:08;;;;;;;4.95;1.90;;;16.80;99.50;;;;;;5006683;28;20369;-81
2022/07/08 09:43:46;;;;;;;11.93;3.22;;;17.30;99.90;;;;;;5012235;28;20109;-83
2022/07/08 09:46:13;;;;;;;8.20;1.90;;;17.70;98.90;;;;;;5012307;28;20125;-82
2022/07/08 09:48:40;;;;;;;8.05;2.20;;;17.50;99.50;;;;;;5012099;28;20587;-82
2022/07/08 09:51:09;;;;;;;9.05;3.42;;;17.20;99.90;;;;;;5012045;28;20031;-81
2022/07/08 09:53:38;;;;;;;11.20;3.05;;;17.00;99.90;;;;;;5012378;28;20059;-82
2022/07/08 09:56:04;;;;;;;5.65;1.85;;;16.60;99.10;;;;;;5012449;28;20116;-83
2022/07/08 09:58:32;;;;;;;11.18;5.97;;;16.40;99.90;;;;;;4998658;28;20029;-82
2022/07/08 10:01:00;;;;;;;7.82;2.92;;;16.00;99.90;;;;;;5002280;28;20034;-82
2022/07/08 10:03:27;;;;;;;8.55;2.30;;;16.10;99.90;;;;;;5010078;28;20064;-82
2022/07/08 10:05:53;;;;;;;8.50;2.60;;;16.00;99.90;;;;;;5001935;28;20156;-81
2022/07/08 10:08:19;;;;;;;10.35;2.67;;;16.30;99.90;;;;;;5001713;28;20059;-83
2022/07/08 10:10:46;;;;;;;16.65;2.53;;;16.30;99.90;;;;;;5002561;28;20049;-82
2022/07/08 10:13:13;;;;;;;17.33;7.88;;;16.50;99.90;;;;;;5000767;28;20037;-81
2022/07/08 10:15:40;;;;;;;8.40;3.90;;;16.60;99.90;;;;;;5002361;28;20493;-82
2022/07/08 10:18:10;;;;;;;21.05;7.22;;;16.90;99.90;;;;;;5001928;28;20029;-80
2022/07/08 10:20:38;;;;;;;9.45;2.15;;;16.80;99.90;;;;;;5002698;28;20026;-83
2022/07/08 10:23:12;;;;;;;9.32;3.15;;;17.20;99.90;;;;;;5001651;28;20395;-82
2022/07/08 10:25:39;;;;;;;6.32;2.20;;;17.00;99.50;;;;;;5008290;28;20474;-82
2022/07/08 10:28:08;;;;;;;8.73;3.88;;;16.80;99.90;;;;;;5010040;28;20444;-81
2022/07/08 10:30:46;;;;;;;7.60;2.88;;;16.50;99.90;;;;;;5015912;28;20032;-81
2022/07/08 10:33:23;;;;;;;8.10;2.95;;;16.40;99.90;;;;;;5021130;28;20018;-80
2022/07/08 10:36:05;;;;;;;10.23;2.30;;;16.40;99.90;;;;;;5020295;28;20034;-79
2022/07/08 10:38:36;;;;;;;11.60;3.05;;;16.20;99.90;;;;;;5018789;28;20030;-84
2022/07/08 10:41:04;;;;;;;8.25;3.00;;;16.00;99.90;;;;;;5021635;28;20044;-83
2022/07/08 10:43:30;;;;;;;8.88;2.53;;;16.00;99.90;;;;;;5023997;28;20018;-80
2022/07/08 10:46:00;;;;;;;7.43;2.42;;;16.50;99.90;;;;;;5021930;28;20105;-81
2022/07/08 10:48:45;;;;;;;14.55;3.30;;;16.90;99.90;;;;;;5010246;28;20522;-83
2022/07/08 10:51:19;;;;;;;12.68;5.00;;;17.00;99.90;;;;;;5002464;28;20034;-80
2022/07/08 10:53:52;;;;;;;10.93;2.75;;;16.60;99.90;;;;;;5002096;28;20053;-80
2022/07/08 10:56:54;;;;;;;21.98;4.38;;;16.80;99.90;;;;;;5001650;28;20387;-81
2022/07/08 10:59:31;;;;;;;7.15;2.45;;;17.30;99.90;;;;;;4989402;28;20037;-80
2022/07/08 11:02:00;;;;;;;6.15;2.17;;;17.50;99.80;;;;;;4999233;28;20080;-84
2022/07/08 11:04:53;;;;;;;13.90;2.92;;;17.40;99.90;;;;;;5002282;28;20416;-81
2022/07/08 11:07:29;;;;;;;10.68;3.08;;;17.30;99.90;;;;;;5000941;28;20075;-83
2022/07/08 11:10:03;;;;;;;12.65;2.83;;;17.20;99.70;;;;;;5000662;28;20026;-83
2022/07/08 11:12:56;;;;;;;6.40;2.38;;;17.20;99.50;;;;;;5002024;28;20477;-81
2022/07/08 11:15:21;;;;;;;10.35;2.22;;;18.10;99.90;;;;;;4998592;28;20061;-82
2022/07/08 11:17:48;;;;;;;12.85;3.40;;;18.70;99.90;;;;;;5001737;28;20038;-83
2022/07/08 11:20:16;;;;;;;10.57;2.67;;;18.60;97.80;;;;;;5004301;28;20029;-84
2022/07/08 11:22:46;;;;;;;8.07;2.40;;;18.20;97.40;;;;;;5010042;28;20516;-80
2022/07/08 11:25:16;;;;;;;7.35;2.53;;;18.00;97.00;;;;;;5004902;28;20038;-82
2022/07/08 11:27:43;;;;;;;6.97;2.05;;;18.00;96.80;;;;;;5006193;28;20300;-85
2022/07/08 11:30:11;;;;;;;5.68;1.92;;;18.20;98.10;;;;;;5001219;28;20031;-81
2022/07/08 11:32:47;;;;;;;6.85;2.08;;;18.90;96.60;;;;;;4999633;28;20026;-79
2022/07/08 11:37:57;;;;;;;7.28;2.35;;;18.60;97.00;;;;;;5001081;28;20095;-82
2022/07/08 11:40:23;;;;;;;9.85;2.72;;;18.50;95.90;;;;;;5001099;28;20034;-83
2022/07/08 11:42:49;;;;;;;5.72;2.25;;;18.20;95.70;;;;;;5000395;28;20042;-84
2022/07/08 11:45:15;;;;;;;8.85;1.98;;;17.90;96.90;;;;;;5000571;28;20037;-82
2022/07/08 11:47:40;;;;;;;8.80;2.33;;;17.80;97.20;;;;;;5001417;28;20073;-82
2022/07/08 11:50:12;;;;;;;6.72;2.80;;;17.80;97.10;;;;;;5004188;28;20058;-82
2022/07/08 11:52:38;;;;;;;5.40;1.95;;;18.10;97.50;;;;;;4999865;28;20026;-81
2022/07/08 11:55:07;;;;;;;14.43;2.17;;;17.70;94.90;;;;;;4999326;28;20117;-84
2022/07/08 11:57:39;;;;;;;4.97;2.40;;;17.50;96.40;;;;;;5000495;28;20382;-83
2022/07/08 12:00:06;;;;;;;6.43;2.30;;;17.70;97.00;;;;;;5004945;28;20026;-82
2022/07/08 12:02:36;;;;;;;12.55;2.13;;;18.10;96.00;;;;;;5014188;28;20049;-84
2022/07/08 12:05:08;;;;;;;11.60;2.38;;;18.50;96.90;;;;;;5014387;28;20104;-83
2022/07/08 12:07:34;;;;;;;13.80;3.75;;;18.70;97.40;;;;;;5014414;28;20465;-83
2022/07/08 12:10:03;;;;;;;9.85;2.75;;;19.10;94.30;;;;;;5013285;28;20064;-83
2022/07/08 12:12:30;;;;;;;8.13;4.10;;;19.30;93.80;;;;;;5014737;28;20030;-82
2022/07/08 12:14:57;;;;;;;2.42;1.52;;;19.30;94.00;;;;;;5012794;28;20029;-81
2022/07/08 12:17:27;;;;;;;7.78;2.10;;;19.90;93.50;;;;;;5015089;28;20091;-82
2022/07/08 12:19:56;;;;;;;5.25;1.65;;;21.10;91.80;;;;;;5016560;28;20037;-81
2022/07/08 12:23:01;;;;;;;7.72;1.90;;;21.90;90.70;;;;;;5016227;28;20025;-83
2022/07/08 12:25:27;;;;;;;4.90;1.70;;;22.10;90.60;;;;;;4978153;28;20085;-83
2022/07/08 12:27:56;;;;;;;6.55;2.40;;;21.00;89.90;;;;;;4993515;28;20058;-84
2022/07/08 12:30:27;;;;;;;5.70;2.05;;;20.80;90.30;;;;;;4983881;28;20038;-84
2022/07/08 12:33:13;;;;;;;7.68;1.75;;;20.50;89.80;;;;;;4994619;28;20031;-85
2022/07/08 12:35:38;;;;;;;5.32;1.83;;;20.50;92.10;;;;;;4994917;28;20037;-81
2022/07/08 12:38:06;;;;;;;8.57;2.00;;;21.20;91.50;;;;;;4994739;28;20034;-85
2022/07/08 12:40:40;;;;;;;7.20;1.90;;;20.80;89.70;;;;;;5009097;28;20030;-84
2022/07/08 12:43:07;;;;;;;4.72;1.67;;;22.30;90.60;;;;;;4994072;28;20589;-82
2022/07/08 12:45:33;;;;;;;4.95;2.03;;;22.70;80.30;;;;;;5009530;28;20037;-82
2022/07/08 12:48:00;;;;;;;7.57;1.75;;;22.30;82.80;;;;;;5013358;28;20042;-83
2022/07/08 12:50:27;;;;;;;11.60;3.10;;;21.30;86.60;;;;;;5013495;28;20033;-82
2022/07/08 12:52:54;;;;;;;10.80;4.50;;;20.10;84.10;;;;;;5013549;28;20022;-83
2022/07/08 12:55:20;;;;;;;10.38;2.70;;;19.70;89.10;;;;;;5013436;28;20034;-81